createdAt,value
2023-05-01T00:00:54.223Z,98416.53
2023-05-01T00:03:20.778Z,98412.91
2023-05-01T00:05:47.534Z,98418.13
2023-05-01T00:08:14.227Z,98418.34
2023-05-01T00:10:40.688Z,98429.38
2023-05-01T00:13:07.180Z,98421.34
2023-05-01T00:15:33.786Z,98414.91
2023-05-01T00:18:00.402Z,98418.53
2023-05-01T00:20:27.963Z,98424.97
2023-05-01T00:22:55.592Z,98411.91
2023-05-01T00:25:22.094Z,98404.88
2023-05-01T00:27:48.571Z,98411.50
2023-05-01T00:30:15.270Z,98423.97
2023-05-01T00:32:41.767Z,98425.97
2023-05-01T00:35:08.683Z,98415.78
2023-05-01T00:37:35.213Z,98421.56
2023-05-01T00:40:01.723Z,98422.16
2023-05-01T00:42:28.233Z,98427.38
2023-05-01T00:44:54.794Z,98423.16
2023-05-01T00:47:21.353Z,98425.78
2023-05-01T00:49:50.091Z,98435.41
2023-05-01T00:52:16.845Z,98425.78
2023-05-01T00:54:43.367Z,98424.16
2023-05-01T00:57:09.963Z,98413.72
2023-05-01T00:59:36.848Z,98429.00
2023-05-01T01:02:03.439Z,98417.34
2023-05-01T01:04:29.959Z,98413.50
2023-05-01T01:07:10.348Z,98418.53
2023-05-01T01:09:39.798Z,98420.34
2023-05-01T01:12:19.134Z,98421.34
2023-05-01T01:14:55.312Z,98415.94
2023-05-01T01:17:40.671Z,98417.34
2023-05-01T01:20:31.361Z,98417.75
2023-05-01T01:23:39.706Z,98415.94
2023-05-01T01:26:12.205Z,98418.13
2023-05-01T01:29:06.235Z,98421.56
2023-05-01T01:31:40.084Z,98410.91
2023-05-01T01:34:12.387Z,98410.09
2023-05-01T01:37:00.511Z,98423.56
2023-05-01T01:39:39.184Z,98427.78
2023-05-01T01:42:09.772Z,98425.78
2023-05-01T01:44:47.600Z,98431.59
2023-05-01T01:47:15.386Z,98433.00
2023-05-01T01:49:50.051Z,98431.78
2023-05-01T01:52:18.718Z,98440.22
2023-05-01T01:54:50.732Z,98440.03
2023-05-01T01:57:19.600Z,98437.81
2023-05-01T01:59:47.486Z,98442.22
2023-05-01T02:02:17.043Z,98437.81
2023-05-01T02:04:45.709Z,98442.03
2023-05-01T02:07:14.817Z,98441.41
2023-05-01T02:09:42.662Z,98448.25
2023-05-01T02:12:11.102Z,98448.47
2023-05-01T02:14:38.847Z,98433.38
2023-05-01T02:17:06.227Z,98430.16
2023-05-01T02:19:34.333Z,98424.53
2023-05-01T02:22:01.912Z,98414.66
2023-05-01T02:24:30.640Z,98413.28
2023-05-01T02:27:01.086Z,98418.09
2023-05-01T02:29:27.601Z,98422.69
2023-05-01T02:31:54.410Z,98433.16
2023-05-01T02:34:20.977Z,98449.44
2023-05-01T02:36:47.465Z,98456.66
2023-05-01T02:39:14.098Z,98467.13
2023-05-01T02:41:41.954Z,98480.19
2023-05-01T02:44:11.232Z,98489.22
2023-05-01T02:49:05.810Z,98491.66
2023-05-01T02:51:32.726Z,98497.06
2023-05-01T02:54:00.167Z,98511.75
2023-05-01T02:56:26.942Z,98515.38
2023-05-01T02:58:53.875Z,98521.00
2023-05-01T03:01:20.503Z,98521.81
2023-05-01T03:03:47.316Z,98517.59
2023-05-01T03:06:13.899Z,98518.38
2023-05-01T03:08:40.817Z,98509.13
2023-05-01T03:11:07.808Z,98503.31
2023-05-01T03:13:34.986Z,98506.91
2023-05-01T03:16:02.311Z,98533.66
2023-05-01T03:18:28.850Z,98498.88
2023-05-01T03:20:55.899Z,98505.09
2023-05-01T03:23:23.021Z,98501.28
2023-05-01T03:25:50.121Z,98500.03
2023-05-01T03:28:16.737Z,98498.63
2023-05-01T03:30:45.044Z,98501.44
2023-05-01T03:33:11.565Z,98505.03
2023-05-01T03:35:38.217Z,98507.66
2023-05-01T03:38:04.789Z,98512.88
2023-05-01T03:40:31.704Z,98534.38
2023-05-01T03:42:58.167Z,98519.28
2023-05-01T03:45:24.693Z,98519.69
2023-05-01T03:47:51.232Z,98517.28
2023-05-01T03:50:17.725Z,98511.44
2023-05-01T03:52:44.181Z,98509.41
2023-05-01T03:55:10.728Z,98502.97
2023-05-01T03:57:37.284Z,98507.78
2023-05-01T04:00:04.078Z,98508.38
2023-05-01T04:02:30.800Z,98501.13
2023-05-01T04:04:57.351Z,98509.59
2023-05-01T04:07:24.481Z,98513.22
2023-05-01T04:10:11.019Z,98511.59
2023-05-01T04:12:37.488Z,98499.50
2023-05-01T04:15:04.198Z,98506.97
2023-05-01T04:17:31.725Z,98502.75
2023-05-01T04:19:58.465Z,98504.34
2023-05-01T04:22:25.925Z,98510.38
2023-05-01T04:24:52.553Z,98512.38
2023-05-01T04:27:19.062Z,98508.13
2023-05-01T04:29:45.775Z,98507.91
2023-05-01T04:32:12.507Z,98508.50
2023-05-01T04:34:38.968Z,98503.91
2023-05-01T04:37:05.403Z,98500.03
2023-05-01T04:39:31.925Z,98492.94
2023-05-01T04:41:58.374Z,98494.72
2023-05-01T04:44:24.961Z,98502.53
2023-05-01T04:46:52.011Z,98489.84
2023-05-01T04:49:18.511Z,98499.69
2023-05-01T04:51:45.028Z,98511.34
2023-05-01T04:54:11.567Z,98506.50
2023-05-01T04:56:38.029Z,98512.75
2023-05-01T04:59:04.552Z,98513.69
2023-05-01T05:01:31.233Z,98512.88
2023-05-01T05:03:57.789Z,98528.69
2023-05-01T05:06:24.581Z,98527.00
2023-05-01T05:08:51.100Z,98529.19
2023-05-01T05:11:20.657Z,98531.31
2023-05-01T05:13:47.176Z,98534.50
2023-05-01T05:16:14.034Z,98532.63
2023-05-01T05:18:40.719Z,98536.53
2023-05-01T05:21:07.647Z,98525.94
2023-05-01T05:23:34.643Z,98530.75
2023-05-01T05:26:01.140Z,98535.09
2023-05-01T05:28:28.045Z,98543.03
2023-05-01T05:30:55.304Z,98545.97
2023-05-01T05:33:21.861Z,98561.53
2023-05-01T05:35:48.615Z,98541.88
2023-05-01T05:38:15.156Z,98547.75
2023-05-01T05:40:41.669Z,98548.94
2023-05-01T05:43:08.146Z,98547.25
2023-05-01T05:45:34.861Z,98538.03
2023-05-01T05:48:01.370Z,98539.09
2023-05-01T05:50:28.040Z,98552.84
2023-05-01T05:52:54.579Z,98546.44
2023-05-01T05:55:21.050Z,98540.84
2023-05-01T05:57:47.641Z,98546.72
2023-05-01T06:00:14.794Z,98546.63
2023-05-01T06:02:41.414Z,98545.59
2023-05-01T06:05:08.334Z,98540.44
2023-05-01T06:07:34.942Z,98541.69
2023-05-01T06:10:01.483Z,98543.16
2023-05-01T06:12:27.984Z,98543.50
2023-05-01T06:14:54.871Z,98539.97
2023-05-01T06:17:22.207Z,98537.56
2023-05-01T06:19:48.707Z,98532.84
2023-05-01T06:22:15.222Z,98530.38
2023-05-01T06:24:41.772Z,98531.66
2023-05-01T06:27:08.252Z,98534.53
2023-05-01T06:29:34.808Z,98530.31
2023-05-01T06:32:01.324Z,98533.00
2023-05-01T06:34:27.823Z,98539.22
2023-05-01T06:36:54.345Z,98537.59
2023-05-01T06:39:20.856Z,98542.00
2023-05-01T06:41:47.903Z,98549.63
2023-05-01T06:44:14.911Z,98551.81
2023-05-01T06:46:41.407Z,98555.09
2023-05-01T06:49:07.903Z,98553.31
2023-05-01T06:51:34.457Z,98570.66
2023-05-01T06:54:00.949Z,98576.50
2023-05-01T06:56:27.432Z,98579.03
2023-05-01T06:58:53.919Z,98587.69
2023-05-01T07:01:20.563Z,98599.03
2023-05-01T07:03:47.155Z,98597.03
2023-05-01T07:06:13.811Z,98602.63
2023-05-01T07:08:40.328Z,98611.84
2023-05-01T07:11:07.102Z,98619.41
2023-05-01T07:13:33.643Z,98625.97
2023-05-01T07:16:00.335Z,98635.28
2023-05-01T07:18:26.825Z,98642.66
2023-05-01T07:20:53.313Z,98648.00
2023-05-01T07:23:19.760Z,98655.56
2023-05-01T07:25:46.323Z,98660.91
2023-05-01T07:28:13.010Z,98665.34
2023-05-01T07:30:39.470Z,98657.72
2023-05-01T07:33:06.076Z,98677.56
2023-05-01T07:35:32.701Z,98677.50
2023-05-01T07:37:59.179Z,98679.91
2023-05-01T07:40:25.829Z,98685.13
2023-05-01T07:42:54.425Z,98690.09
2023-05-01T07:45:21.159Z,98692.03
2023-05-01T07:47:47.697Z,98689.47
2023-05-01T07:50:14.302Z,98693.94
2023-05-01T07:52:40.776Z,98686.25
2023-05-01T07:55:07.955Z,98689.63
2023-05-01T07:57:36.181Z,98691.84
2023-05-01T08:00:02.926Z,98686.88
2023-05-01T08:02:29.786Z,98689.28
2023-05-01T08:04:56.567Z,98687.91
2023-05-01T08:07:23.200Z,98691.75
2023-05-01T08:09:49.684Z,98678.63
2023-05-01T08:12:16.180Z,98689.56
2023-05-01T08:14:42.668Z,98691.97
2023-05-01T08:17:09.366Z,98694.00
2023-05-01T08:19:35.882Z,98693.91
2023-05-01T08:22:02.363Z,98697.53
2023-05-01T08:24:30.035Z,98696.31
2023-05-01T08:26:56.679Z,98703.84
2023-05-01T08:29:23.152Z,98707.75
2023-05-01T08:31:49.720Z,98703.38
2023-05-01T08:34:16.314Z,98701.22
2023-05-01T08:36:42.772Z,98708.44
2023-05-01T08:39:09.221Z,98706.91
2023-05-01T08:41:37.612Z,98714.53
2023-05-01T08:44:05.038Z,98718.66
2023-05-01T08:46:46.817Z,98714.91
2023-05-01T08:49:15.779Z,98716.91
2023-05-01T08:51:46.040Z,98707.72
2023-05-01T08:54:14.526Z,98707.81
2023-05-01T08:56:46.393Z,98719.78
2023-05-01T08:59:14.166Z,98710.31
2023-05-01T09:01:41.998Z,98707.97
2023-05-01T09:04:09.167Z,98715.81
2023-05-01T09:06:35.988Z,98718.97
2023-05-01T09:09:02.814Z,98715.22
2023-05-01T09:11:30.160Z,98713.50
2023-05-01T09:13:56.899Z,98721.84
2023-05-01T09:16:23.730Z,98720.25
2023-05-01T09:18:50.590Z,98716.78
2023-05-01T09:21:17.123Z,98723.78
2023-05-01T09:23:43.650Z,98725.53
2023-05-01T09:26:10.180Z,98714.78
2023-05-01T09:28:43.587Z,98710.91
2023-05-01T09:31:21.415Z,98716.69
2023-05-01T09:33:52.630Z,98720.53
2023-05-01T09:36:19.107Z,98725.47
2023-05-01T09:38:45.662Z,98718.75
2023-05-01T09:41:12.196Z,98723.31
2023-05-01T09:43:38.892Z,98730.25
2023-05-01T09:46:10.440Z,98727.34
2023-05-01T09:48:38.164Z,98736.88
2023-05-01T09:51:19.725Z,98744.84
2023-05-01T09:53:46.225Z,98750.22
2023-05-01T09:56:12.694Z,98750.56
2023-05-01T09:58:39.320Z,98755.59
2023-05-01T10:01:05.910Z,98757.00
2023-05-01T10:03:34.659Z,98755.69
2023-05-01T10:06:01.435Z,98761.03
2023-05-01T10:08:44.246Z,98758.16
2023-05-01T10:11:10.757Z,98763.09
2023-05-01T10:13:37.232Z,98757.44
2023-05-01T10:16:05.513Z,98759.63
2023-05-01T10:18:34.058Z,98762.88
2023-05-01T10:21:00.631Z,98771.38
2023-05-01T10:23:27.131Z,98778.72
2023-05-01T10:25:53.825Z,98773.53
2023-05-01T10:28:21.248Z,98777.31
2023-05-01T10:30:49.155Z,98784.19
2023-05-01T10:33:16.339Z,98782.69
2023-05-01T10:35:48.816Z,98792.00
2023-05-01T10:38:24.575Z,98790.31
2023-05-01T10:40:51.760Z,98800.66
2023-05-01T10:43:21.405Z,98802.28
2023-05-01T10:45:48.569Z,98807.31
2023-05-01T10:48:39.728Z,98813.53
2023-05-01T10:51:12.133Z,98818.25
2023-05-01T10:53:40.073Z,98816.22
2023-05-01T10:56:29.024Z,98815.81
2023-05-01T10:58:58.870Z,98811.41
2023-05-01T11:01:33.159Z,98810.31
2023-05-01T11:04:02.491Z,98816.16
2023-05-01T11:06:29.226Z,98825.41
2023-05-01T11:08:56.662Z,98819.19
2023-05-01T11:11:23.099Z,98825.16
2023-05-01T11:14:06.007Z,98826.97
2023-05-01T11:16:38.672Z,98831.63
2023-05-01T11:19:10.828Z,98825.69
2023-05-01T11:21:40.371Z,98827.44
2023-05-01T11:24:07.366Z,98826.94
2023-05-01T11:26:41.176Z,98836.59
2023-05-01T11:29:11.800Z,98834.50
2023-05-01T11:31:39.237Z,98836.25
2023-05-01T11:34:05.892Z,98851.22
2023-05-01T11:36:53.137Z,98844.03
2023-05-01T11:39:20.779Z,98849.03
2023-05-01T11:41:47.326Z,98849.16
2023-05-01T11:44:18.296Z,98853.25
2023-05-01T11:46:45.002Z,98877.44
2023-05-01T11:49:11.928Z,98885.16
2023-05-01T11:51:38.666Z,98898.03
2023-05-01T11:54:07.433Z,98895.03
2023-05-01T11:56:34.804Z,98913.66
2023-05-01T11:59:15.758Z,98914.91
2023-05-01T12:01:46.862Z,98916.41
2023-05-01T12:04:22.935Z,98913.19
2023-05-01T12:06:49.745Z,98928.59
2023-05-01T12:09:25.313Z,98928.00
2023-05-01T12:11:53.465Z,98934.19
2023-05-01T12:14:21.229Z,98953.84
2023-05-01T12:16:48.575Z,98956.16
2023-05-01T12:21:42.798Z,98970.88
2023-05-01T12:24:14.828Z,98964.16
2023-05-01T12:29:08.997Z,98978.16
2023-05-01T12:31:36.333Z,98980.78
2023-05-01T12:34:07.029Z,98977.56
2023-05-01T12:39:11.283Z,99004.09
2023-05-01T12:41:46.532Z,99002.88
2023-05-01T12:44:16.052Z,99009.63
2023-05-01T12:55:04.718Z,99027.72
2023-05-01T12:57:32.002Z,99043.47
2023-05-01T13:05:12.198Z,99067.25
2023-05-01T13:07:38.980Z,99074.72
2023-05-01T13:10:06.194Z,99073.09
2023-05-01T13:12:33.161Z,99089.38
2023-05-01T13:20:04.772Z,99091.75
2023-05-01T13:27:25.943Z,99119.38
2023-05-01T13:39:46.429Z,99141.66
2023-05-01T13:42:18.400Z,99148.56
2023-05-01T13:59:45.872Z,99154.47
2023-05-01T14:02:25.151Z,99150.22
2023-05-01T14:04:51.858Z,99147.59
2023-05-01T14:07:20.602Z,99157.31
2023-05-01T14:09:55.079Z,99163.75
2023-05-01T14:15:43.057Z,99155.47
2023-05-01T14:18:14.873Z,99160.31
2023-05-01T14:20:42.462Z,99161.34
2023-05-01T14:28:06.698Z,99179.69
2023-05-01T14:30:37.608Z,99171.03
2023-05-01T14:33:05.866Z,99171.66
2023-05-01T14:35:32.387Z,99171.88
2023-05-01T14:38:10.540Z,99177.88
2023-05-01T14:40:40.214Z,99178.91
2023-05-01T14:43:07.174Z,99179.09
2023-05-01T14:45:36.551Z,99183.91
2023-05-01T14:48:03.666Z,99188.50
2023-05-01T14:50:30.184Z,99197.56
2023-05-01T15:07:43.048Z,99196.47
2023-05-01T15:10:10.281Z,99200.50
2023-05-01T15:12:36.811Z,99199.09
2023-05-01T15:15:03.554Z,99197.06
2023-05-01T15:22:25.459Z,99203.72
2023-05-01T15:24:51.929Z,99206.75
2023-05-01T15:27:18.412Z,99212.16
2023-05-01T15:29:44.902Z,99215.81
2023-05-01T15:32:12.772Z,99219.22
2023-05-01T15:34:39.742Z,99218.19
2023-05-01T15:39:32.705Z,99220.59
2023-05-01T15:41:59.309Z,99219.97
2023-05-01T15:44:25.930Z,99222.16
2023-05-01T15:46:52.504Z,99234.19
2023-05-01T15:49:19.056Z,99240.97
2023-05-01T15:59:07.607Z,99255.03
2023-05-01T16:06:29.889Z,99268.31
2023-05-01T16:08:58.191Z,99270.34
2023-05-01T16:11:24.701Z,99279.22
2023-05-01T16:13:51.736Z,99284.38
2023-05-01T16:16:28.588Z,99298.31
2023-05-01T16:26:28.201Z,99301.59
2023-05-01T16:29:01.307Z,99302.78
2023-05-01T16:31:29.707Z,99301.50
2023-05-01T16:33:56.176Z,99310.34
2023-05-01T16:36:22.655Z,99314.34
2023-05-01T16:38:49.298Z,99318.94
2023-05-01T16:41:17.270Z,99331.59
2023-05-01T16:43:45.343Z,99331.56
2023-05-01T16:46:16.066Z,99339.34
2023-05-01T16:48:42.798Z,99343.28
2023-05-01T16:51:10.657Z,99341.78
2023-05-01T16:56:04.878Z,99358.50
2023-05-01T16:58:31.458Z,99366.00
2023-05-01T17:00:57.949Z,99369.91
2023-05-01T17:03:24.484Z,99374.16
2023-05-01T17:05:50.972Z,99377.59
2023-05-01T17:08:17.492Z,99382.19
2023-05-01T17:10:44.318Z,99393.19
2023-05-01T17:13:10.962Z,99392.16
2023-05-01T17:15:37.486Z,99404.34
2023-05-01T17:18:04.001Z,99407.34
2023-05-01T17:20:30.531Z,99409.31
2023-05-01T17:22:57.158Z,99416.00
2023-05-01T17:25:23.629Z,99421.03
2023-05-01T17:27:50.073Z,99428.56
2023-05-01T17:30:16.564Z,99430.56
2023-05-01T17:32:43.224Z,99431.81
2023-05-01T17:35:09.893Z,99436.84
2023-05-01T17:37:36.489Z,99445.25
2023-05-01T17:40:03.227Z,99451.22
2023-05-01T17:42:29.953Z,99450.53
2023-05-01T17:44:56.612Z,99450.00
2023-05-01T17:47:25.790Z,99462.53
2023-05-01T17:49:52.619Z,99468.22
2023-05-01T17:52:19.148Z,99478.22
2023-05-01T17:54:45.720Z,99494.91
2023-05-01T17:57:12.687Z,99482.56
2023-05-01T17:59:39.239Z,99488.38
2023-05-01T18:02:06.005Z,99485.28
2023-05-01T18:04:32.539Z,99483.84
2023-05-01T18:11:52.095Z,99492.31
2023-05-01T18:14:18.603Z,99490.53
2023-05-01T18:16:45.481Z,99491.16
2023-05-01T18:19:11.980Z,99495.09
2023-05-01T18:21:38.801Z,99493.47
2023-05-01T18:24:05.284Z,99503.03
2023-05-01T18:26:31.783Z,99504.09
2023-05-01T18:28:58.312Z,99501.00
2023-05-01T18:31:24.813Z,99506.41
2023-05-01T18:36:17.764Z,99509.75
2023-05-01T18:38:44.734Z,99511.97
2023-05-01T18:41:11.213Z,99513.38
2023-05-01T18:43:37.777Z,99525.00
2023-05-01T18:46:04.276Z,99522.59
2023-05-01T18:48:30.893Z,99524.56
2023-05-01T18:51:07.906Z,99524.59
2023-05-01T18:53:35.344Z,99524.59
2023-05-01T18:56:02.421Z,99529.16
2023-05-01T18:58:28.913Z,99528.50
2023-05-01T19:00:55.395Z,99535.81
2023-05-01T19:03:21.924Z,99541.19
2023-05-01T19:05:48.406Z,99546.50
2023-05-01T19:08:14.935Z,99548.28
2023-05-01T19:10:41.533Z,99549.22
2023-05-01T19:13:08.203Z,99559.44
2023-05-01T19:18:01.193Z,99563.31
2023-05-01T19:20:27.856Z,99557.63
2023-05-01T19:22:54.341Z,99565.41
2023-05-01T19:25:20.917Z,99567.34
2023-05-01T19:27:47.426Z,99568.47
2023-05-01T19:30:13.918Z,99570.88
2023-05-01T19:32:40.619Z,99569.22
2023-05-01T19:35:07.413Z,99564.63
2023-05-01T19:37:33.879Z,99565.53
2023-05-01T19:40:00.621Z,99564.22
2023-05-01T19:42:27.375Z,99575.22
2023-05-01T19:44:53.842Z,99578.75
2023-05-01T19:47:20.427Z,99583.44
2023-05-01T19:49:46.966Z,99576.78
2023-05-01T19:52:13.432Z,99576.56
2023-05-01T19:54:39.950Z,99577.38
2023-05-01T19:57:06.488Z,99582.06
2023-05-01T19:59:33.024Z,99581.53
2023-05-01T20:26:26.054Z,99628.75
2023-05-01T20:41:10.846Z,99640.38
2023-05-01T20:43:38.690Z,99640.44
2023-05-01T21:00:44.471Z,99661.97
2023-05-01T21:22:44.099Z,99691.94
2023-05-01T21:35:00.594Z,99712.69
2023-05-01T21:39:53.749Z,99714.47
2023-05-01T21:59:40.439Z,99733.00
2023-05-01T22:02:11.769Z,99737.38
2023-05-01T22:04:38.769Z,99734.28
2023-05-01T22:07:06.130Z,99746.53
2023-05-01T22:09:33.136Z,99751.88
2023-05-01T22:11:59.598Z,99753.78
2023-05-01T22:17:06.701Z,99748.00
2023-05-01T22:19:33.312Z,99756.50
2023-05-01T22:31:45.345Z,99766.31
2023-05-01T22:34:11.901Z,99763.84
2023-05-01T22:36:38.445Z,99766.31
2023-05-01T22:39:04.890Z,99770.66
2023-05-01T22:41:31.387Z,99768.47
2023-05-01T22:46:24.278Z,99763.56
2023-05-01T22:48:50.840Z,99771.88
2023-05-01T22:51:17.305Z,99768.06
2023-05-01T22:53:43.780Z,99777.72
2023-05-01T22:56:10.333Z,99775.41
2023-05-01T22:58:36.884Z,99779.19
2023-05-01T23:01:03.397Z,99786.41
2023-05-01T23:03:31.420Z,99790.91
2023-05-01T23:05:58.023Z,99791.19
2023-05-01T23:08:24.521Z,99789.69
2023-05-01T23:15:47.604Z,99798.50
2023-05-01T23:18:17.178Z,99801.34
2023-05-01T23:20:43.873Z,99809.00
2023-05-01T23:23:13.958Z,99816.63
2023-05-01T23:47:45.342Z,99852.91
2023-05-01T23:50:11.887Z,99854.53
2023-05-01T23:52:38.429Z,99861.63
2023-05-01T23:55:05.339Z,99867.75
